sensor_id;sensor_type;location;lat;lon;timestamp;P1;durP1;ratioP1;P2;durP2;ratioP2
57730;SDS011;43570;47.476;19.040;2023-05-10T00:01:26;6.00;;;3.78;;
57730;SDS011;43570;47.476;19.040;2023-05-10T00:03:52;5.97;;;3.40;;
57730;SDS011;43570;47.476;19.040;2023-05-10T00:06:17;6.20;;;4.05;;
57730;SDS011;43570;47.476;19.040;2023-05-10T00:08:43;9.13;;;3.80;;
57730;SDS011;43570;47.476;19.040;2023-05-10T00:11:10;6.12;;;3.85;;
57730;SDS011;43570;47.476;19.040;2023-05-10T00:13:35;5.28;;;3.65;;
57730;SDS011;43570;47.476;19.040;2023-05-10T00:16:01;5.82;;;3.90;;
57730;SDS011;43570;47.476;19.040;2023-05-10T00:18:26;5.15;;;3.92;;
57730;SDS011;43570;47.476;19.040;2023-05-10T00:20:51;5.70;;;3.87;;
57730;SDS011;43570;47.476;19.040;2023-05-10T00:23:17;6.62;;;3.90;;
57730;SDS011;43570;47.476;19.040;2023-05-10T00:25:42;5.47;;;4.05;;
57730;SDS011;43570;47.476;19.040;2023-05-10T00:28:08;7.35;;;3.70;;
57730;SDS011;43570;47.476;19.040;2023-05-10T00:30:33;5.70;;;4.05;;
57730;SDS011;43570;47.476;19.040;2023-05-10T00:32:58;5.68;;;3.75;;
57730;SDS011;43570;47.476;19.040;2023-05-10T00:35:24;5.22;;;3.95;;
57730;SDS011;43570;47.476;19.040;2023-05-10T00:37:49;5.00;;;3.55;;
57730;SDS011;43570;47.476;19.040;2023-05-10T00:40:15;6.07;;;3.78;;
57730;SDS011;43570;47.476;19.040;2023-05-10T00:42:40;5.80;;;4.57;;
57730;SDS011;43570;47.476;19.040;2023-05-10T00:45:06;7.72;;;4.40;;
57730;SDS011;43570;47.476;19.040;2023-05-10T00:47:32;5.60;;;3.87;;
57730;SDS011;43570;47.476;19.040;2023-05-10T00:49:57;5.62;;;4.28;;
57730;SDS011;43570;47.476;19.040;2023-05-10T00:52:24;8.02;;;4.75;;
57730;SDS011;43570;47.476;19.040;2023-05-10T00:54:51;6.90;;;4.97;;
57730;SDS011;43570;47.476;19.040;2023-05-10T00:57:17;5.40;;;4.35;;
57730;SDS011;43570;47.476;19.040;2023-05-10T00:59:42;5.60;;;4.47;;
57730;SDS011;43570;47.476;19.040;2023-05-10T01:02:08;6.07;;;4.10;;
57730;SDS011;43570;47.476;19.040;2023-05-10T01:04:34;5.70;;;4.28;;
57730;SDS011;43570;47.476;19.040;2023-05-10T01:07:00;6.90;;;4.57;;
57730;SDS011;43570;47.476;19.040;2023-05-10T01:09:26;7.45;;;4.72;;
57730;SDS011;43570;47.476;19.040;2023-05-10T01:11:52;7.78;;;4.65;;
57730;SDS011;43570;47.476;19.040;2023-05-10T01:14:18;7.93;;;4.60;;
57730;SDS011;43570;47.476;19.040;2023-05-10T01:16:44;5.90;;;4.10;;
57730;SDS011;43570;47.476;19.040;2023-05-10T01:19:25;8.13;;;4.57;;
57730;SDS011;43570;47.476;19.040;2023-05-10T01:21:55;8.63;;;4.75;;
57730;SDS011;43570;47.476;19.040;2023-05-10T01:27:51;6.95;;;5.03;;
57730;SDS011;43570;47.476;19.040;2023-05-10T01:38:15;6.62;;;4.22;;
57730;SDS011;43570;47.476;19.040;2023-05-10T01:43:28;6.85;;;4.95;;
57730;SDS011;43570;47.476;19.040;2023-05-10T01:45:59;6.65;;;4.70;;
57730;SDS011;43570;47.476;19.040;2023-05-10T01:48:29;8.57;;;4.97;;
57730;SDS011;43570;47.476;19.040;2023-05-10T01:50:55;7.12;;;5.10;;
57730;SDS011;43570;47.476;19.040;2023-05-10T01:53:21;7.00;;;5.30;;
57730;SDS011;43570;47.476;19.040;2023-05-10T01:55:48;9.40;;;4.93;;
57730;SDS011;43570;47.476;19.040;2023-05-10T01:58:29;6.60;;;4.68;;
57730;SDS011;43570;47.476;19.040;2023-05-10T02:00:57;7.80;;;5.10;;
57730;SDS011;43570;47.476;19.040;2023-05-10T02:03:24;6.62;;;5.00;;
57730;SDS011;43570;47.476;19.040;2023-05-10T02:05:51;7.55;;;5.37;;
57730;SDS011;43570;47.476;19.040;2023-05-10T02:08:17;7.32;;;5.60;;
57730;SDS011;43570;47.476;19.040;2023-05-10T02:10:43;6.70;;;5.60;;
57730;SDS011;43570;47.476;19.040;2023-05-10T02:13:10;9.43;;;5.87;;
57730;SDS011;43570;47.476;19.040;2023-05-10T02:15:36;7.18;;;5.03;;
57730;SDS011;43570;47.476;19.040;2023-05-10T02:18:02;6.45;;;5.12;;
57730;SDS011;43570;47.476;19.040;2023-05-10T02:20:27;6.90;;;5.28;;
57730;SDS011;43570;47.476;19.040;2023-05-10T02:22:54;7.40;;;4.80;;
57730;SDS011;43570;47.476;19.040;2023-05-10T02:25:21;6.57;;;4.82;;
57730;SDS011;43570;47.476;19.040;2023-05-10T02:27:47;7.75;;;5.00;;
57730;SDS011;43570;47.476;19.040;2023-05-10T02:30:13;6.10;;;4.97;;
57730;SDS011;43570;47.476;19.040;2023-05-10T02:32:38;8.55;;;4.85;;
57730;SDS011;43570;47.476;19.040;2023-05-10T02:35:04;6.10;;;4.70;;
57730;SDS011;43570;47.476;19.040;2023-05-10T02:37:31;7.78;;;5.12;;
57730;SDS011;43570;47.476;19.040;2023-05-10T02:39:57;7.07;;;4.90;;
57730;SDS011;43570;47.476;19.040;2023-05-10T02:42:25;7.00;;;5.05;;
57730;SDS011;43570;47.476;19.040;2023-05-10T02:44:53;7.30;;;4.95;;
57730;SDS011;43570;47.476;19.040;2023-05-10T02:47:19;8.35;;;4.72;;
57730;SDS011;43570;47.476;19.040;2023-05-10T02:49:45;6.93;;;5.15;;
57730;SDS011;43570;47.476;19.040;2023-05-10T02:52:11;5.57;;;4.47;;
57730;SDS011;43570;47.476;19.040;2023-05-10T02:54:43;6.32;;;4.75;;
57730;SDS011;43570;47.476;19.040;2023-05-10T02:59:36;5.97;;;5.03;;
57730;SDS011;43570;47.476;19.040;2023-05-10T03:02:02;8.05;;;4.80;;
57730;SDS011;43570;47.476;19.040;2023-05-10T03:04:28;7.25;;;4.93;;
57730;SDS011;43570;47.476;19.040;2023-05-10T03:06:53;7.62;;;5.12;;
57730;SDS011;43570;47.476;19.040;2023-05-10T03:09:18;5.60;;;4.78;;
57730;SDS011;43570;47.476;19.040;2023-05-10T03:17:04;6.50;;;5.05;;
57730;SDS011;43570;47.476;19.040;2023-05-10T03:19:40;7.18;;;5.30;;
57730;SDS011;43570;47.476;19.040;2023-05-10T03:22:10;7.35;;;5.47;;
57730;SDS011;43570;47.476;19.040;2023-05-10T03:24:35;7.68;;;4.60;;
57730;SDS011;43570;47.476;19.040;2023-05-10T03:27:01;6.80;;;4.97;;
57730;SDS011;43570;47.476;19.040;2023-05-10T03:29:29;7.40;;;5.32;;
57730;SDS011;43570;47.476;19.040;2023-05-10T03:31:55;7.47;;;5.40;;
57730;SDS011;43570;47.476;19.040;2023-05-10T03:34:25;7.22;;;5.20;;
57730;SDS011;43570;47.476;19.040;2023-05-10T03:36:51;6.43;;;5.40;;
57730;SDS011;43570;47.476;19.040;2023-05-10T03:39:16;9.68;;;5.50;;
57730;SDS011;43570;47.476;19.040;2023-05-10T03:41:42;7.12;;;5.40;;
57730;SDS011;43570;47.476;19.040;2023-05-10T03:44:07;7.97;;;5.35;;
57730;SDS011;43570;47.476;19.040;2023-05-10T03:46:33;8.02;;;5.20;;
57730;SDS011;43570;47.476;19.040;2023-05-10T03:48:58;9.02;;;5.40;;
57730;SDS011;43570;47.476;19.040;2023-05-10T03:51:24;7.25;;;5.15;;
57730;SDS011;43570;47.476;19.040;2023-05-10T03:53:53;7.95;;;5.68;;
57730;SDS011;43570;47.476;19.040;2023-05-10T03:56:21;6.97;;;5.35;;
57730;SDS011;43570;47.476;19.040;2023-05-10T03:58:46;7.68;;;5.37;;
57730;SDS011;43570;47.476;19.040;2023-05-10T04:01:12;6.50;;;5.57;;
57730;SDS011;43570;47.476;19.040;2023-05-10T04:03:37;5.90;;;5.20;;
57730;SDS011;43570;47.476;19.040;2023-05-10T04:06:03;7.45;;;5.85;;
57730;SDS011;43570;47.476;19.040;2023-05-10T04:08:28;8.15;;;5.80;;
57730;SDS011;43570;47.476;19.040;2023-05-10T04:10:54;7.60;;;5.43;;
57730;SDS011;43570;47.476;19.040;2023-05-10T04:13:19;8.48;;;5.47;;
57730;SDS011;43570;47.476;19.040;2023-05-10T04:15:45;8.40;;;6.20;;
57730;SDS011;43570;47.476;19.040;2023-05-10T04:18:10;9.90;;;6.05;;
57730;SDS011;43570;47.476;19.040;2023-05-10T04:20:36;7.47;;;5.45;;
57730;SDS011;43570;47.476;19.040;2023-05-10T04:23:01;7.57;;;5.78;;
57730;SDS011;43570;47.476;19.040;2023-05-10T04:25:27;7.68;;;5.97;;
57730;SDS011;43570;47.476;19.040;2023-05-10T04:27:52;7.22;;;5.75;;
57730;SDS011;43570;47.476;19.040;2023-05-10T04:30:17;7.87;;;6.22;;
57730;SDS011;43570;47.476;19.040;2023-05-10T04:32:43;9.32;;;5.90;;
57730;SDS011;43570;47.476;19.040;2023-05-10T04:35:08;9.27;;;6.28;;
57730;SDS011;43570;47.476;19.040;2023-05-10T04:37:35;9.32;;;5.57;;
57730;SDS011;43570;47.476;19.040;2023-05-10T04:40:01;7.70;;;5.45;;
57730;SDS011;43570;47.476;19.040;2023-05-10T04:42:28;6.95;;;5.80;;
57730;SDS011;43570;47.476;19.040;2023-05-10T04:44:53;9.77;;;6.07;;
57730;SDS011;43570;47.476;19.040;2023-05-10T04:47:19;8.00;;;6.05;;
57730;SDS011;43570;47.476;19.040;2023-05-10T04:49:44;8.43;;;6.25;;
57730;SDS011;43570;47.476;19.040;2023-05-10T04:52:10;7.03;;;5.93;;
57730;SDS011;43570;47.476;19.040;2023-05-10T04:54:36;7.95;;;6.07;;
57730;SDS011;43570;47.476;19.040;2023-05-10T04:57:02;7.60;;;6.20;;
57730;SDS011;43570;47.476;19.040;2023-05-10T04:59:27;9.00;;;6.45;;
57730;SDS011;43570;47.476;19.040;2023-05-10T05:01:53;7.95;;;6.20;;
57730;SDS011;43570;47.476;19.040;2023-05-10T05:04:18;8.50;;;6.12;;
57730;SDS011;43570;47.476;19.040;2023-05-10T05:06:43;8.73;;;6.35;;
57730;SDS011;43570;47.476;19.040;2023-05-10T05:09:09;11.00;;;6.57;;
57730;SDS011;43570;47.476;19.040;2023-05-10T05:11:35;8.50;;;6.65;;
57730;SDS011;43570;47.476;19.040;2023-05-10T05:14:00;8.00;;;6.28;;
57730;SDS011;43570;47.476;19.040;2023-05-10T05:16:26;9.10;;;6.53;;
57730;SDS011;43570;47.476;19.040;2023-05-10T05:18:51;9.73;;;6.07;;
57730;SDS011;43570;47.476;19.040;2023-05-10T05:21:17;8.55;;;6.10;;
57730;SDS011;43570;47.476;19.040;2023-05-10T05:23:43;9.55;;;6.12;;
57730;SDS011;43570;47.476;19.040;2023-05-10T05:26:08;11.38;;;6.35;;
57730;SDS011;43570;47.476;19.040;2023-05-10T05:28:34;7.78;;;6.37;;
57730;SDS011;43570;47.476;19.040;2023-05-10T05:31:02;9.95;;;6.00;;
57730;SDS011;43570;47.476;19.040;2023-05-10T05:33:28;9.15;;;7.25;;
57730;SDS011;43570;47.476;19.040;2023-05-10T05:35:53;9.27;;;6.37;;
57730;SDS011;43570;47.476;19.040;2023-05-10T05:38:19;6.43;;;5.70;;
57730;SDS011;43570;47.476;19.040;2023-05-10T05:40:44;8.02;;;6.30;;
57730;SDS011;43570;47.476;19.040;2023-05-10T05:43:10;9.65;;;6.30;;
57730;SDS011;43570;47.476;19.040;2023-05-10T05:45:36;7.15;;;5.93;;
57730;SDS011;43570;47.476;19.040;2023-05-10T05:48:01;8.50;;;6.65;;
57730;SDS011;43570;47.476;19.040;2023-05-10T05:50:26;7.55;;;5.85;;
57730;SDS011;43570;47.476;19.040;2023-05-10T05:52:52;8.75;;;6.25;;
57730;SDS011;43570;47.476;19.040;2023-05-10T05:55:17;8.85;;;6.32;;
57730;SDS011;43570;47.476;19.040;2023-05-10T05:57:43;7.80;;;6.12;;
57730;SDS011;43570;47.476;19.040;2023-05-10T06:00:08;8.77;;;6.60;;
57730;SDS011;43570;47.476;19.040;2023-05-10T06:02:34;12.05;;;6.70;;
57730;SDS011;43570;47.476;19.040;2023-05-10T06:04:59;9.23;;;5.78;;
57730;SDS011;43570;47.476;19.040;2023-05-10T06:07:24;9.82;;;6.22;;
57730;SDS011;43570;47.476;19.040;2023-05-10T06:09:50;6.93;;;5.97;;
57730;SDS011;43570;47.476;19.040;2023-05-10T06:12:16;7.87;;;5.75;;
57730;SDS011;43570;47.476;19.040;2023-05-10T06:14:41;6.95;;;5.95;;
57730;SDS011;43570;47.476;19.040;2023-05-10T06:17:07;8.73;;;6.00;;
57730;SDS011;43570;47.476;19.040;2023-05-10T06:19:32;6.80;;;5.80;;
57730;SDS011;43570;47.476;19.040;2023-05-10T06:21:57;9.57;;;5.78;;
57730;SDS011;43570;47.476;19.040;2023-05-10T06:24:23;7.05;;;5.78;;
57730;SDS011;43570;47.476;19.040;2023-05-10T06:26:48;9.02;;;6.12;;
57730;SDS011;43570;47.476;19.040;2023-05-10T06:29:14;7.97;;;5.75;;
57730;SDS011;43570;47.476;19.040;2023-05-10T06:31:40;7.55;;;5.30;;
57730;SDS011;43570;47.476;19.040;2023-05-10T06:34:05;13.20;;;5.53;;
57730;SDS011;43570;47.476;19.040;2023-05-10T06:36:32;7.43;;;5.72;;
57730;SDS011;43570;47.476;19.040;2023-05-10T06:38:58;6.95;;;5.20;;
57730;SDS011;43570;47.476;19.040;2023-05-10T06:41:23;8.10;;;5.45;;
57730;SDS011;43570;47.476;19.040;2023-05-10T06:43:49;8.50;;;5.70;;
57730;SDS011;43570;47.476;19.040;2023-05-10T06:46:14;8.48;;;5.55;;
57730;SDS011;43570;47.476;19.040;2023-05-10T06:48:40;10.57;;;9.48;;
57730;SDS011;43570;47.476;19.040;2023-05-10T06:51:05;7.95;;;5.97;;
57730;SDS011;43570;47.476;19.040;2023-05-10T06:53:30;9.05;;;5.78;;
57730;SDS011;43570;47.476;19.040;2023-05-10T06:55:56;7.07;;;5.68;;
57730;SDS011;43570;47.476;19.040;2023-05-10T06:58:21;8.15;;;5.55;;
57730;SDS011;43570;47.476;19.040;2023-05-10T07:00:47;8.65;;;5.95;;
57730;SDS011;43570;47.476;19.040;2023-05-10T07:03:13;9.27;;;6.43;;
57730;SDS011;43570;47.476;19.040;2023-05-10T07:05:38;9.05;;;6.30;;
57730;SDS011;43570;47.476;19.040;2023-05-10T07:08:03;8.65;;;6.60;;
57730;SDS011;43570;47.476;19.040;2023-05-10T07:10:29;7.72;;;6.65;;
57730;SDS011;43570;47.476;19.040;2023-05-10T07:12:54;9.38;;;6.40;;
57730;SDS011;43570;47.476;19.040;2023-05-10T07:15:20;10.63;;;6.53;;
57730;SDS011;43570;47.476;19.040;2023-05-10T07:17:46;8.77;;;6.18;;
57730;SDS011;43570;47.476;19.040;2023-05-10T07:20:11;10.02;;;6.43;;
57730;SDS011;43570;47.476;19.040;2023-05-10T07:22:37;8.18;;;5.97;;
57730;SDS011;43570;47.476;19.040;2023-05-10T07:25:02;7.97;;;6.10;;
57730;SDS011;43570;47.476;19.040;2023-05-10T07:27:28;8.85;;;6.47;;
57730;SDS011;43570;47.476;19.040;2023-05-10T07:29:53;9.32;;;5.65;;
57730;SDS011;43570;47.476;19.040;2023-05-10T07:32:19;9.25;;;5.72;;
57730;SDS011;43570;47.476;19.040;2023-05-10T07:34:45;7.65;;;5.30;;
57730;SDS011;43570;47.476;19.040;2023-05-10T07:37:10;8.32;;;5.43;;
57730;SDS011;43570;47.476;19.040;2023-05-10T07:39:36;7.00;;;5.32;;
57730;SDS011;43570;47.476;19.040;2023-05-10T07:42:02;6.97;;;5.05;;
57730;SDS011;43570;47.476;19.040;2023-05-10T07:44:27;5.68;;;4.40;;
57730;SDS011;43570;47.476;19.040;2023-05-10T07:46:53;8.07;;;4.72;;
57730;SDS011;43570;47.476;19.040;2023-05-10T07:49:18;8.00;;;4.55;;
57730;SDS011;43570;47.476;19.040;2023-05-10T07:51:44;8.80;;;5.62;;
57730;SDS011;43570;47.476;19.040;2023-05-10T07:54:09;6.03;;;5.15;;
57730;SDS011;43570;47.476;19.040;2023-05-10T07:56:35;6.15;;;5.00;;
57730;SDS011;43570;47.476;19.040;2023-05-10T07:59:00;8.48;;;5.68;;
57730;SDS011;43570;47.476;19.040;2023-05-10T08:01:30;5.87;;;4.90;;
57730;SDS011;43570;47.476;19.040;2023-05-10T08:03:57;6.97;;;4.43;;
57730;SDS011;43570;47.476;19.040;2023-05-10T08:06:22;7.78;;;5.00;;
57730;SDS011;43570;47.476;19.040;2023-05-10T08:08:48;6.62;;;4.37;;
57730;SDS011;43570;47.476;19.040;2023-05-10T08:11:15;6.15;;;4.78;;
57730;SDS011;43570;47.476;19.040;2023-05-10T08:13:41;6.07;;;4.25;;
57730;SDS011;43570;47.476;19.040;2023-05-10T08:16:06;7.20;;;5.12;;
57730;SDS011;43570;47.476;19.040;2023-05-10T08:18:32;9.20;;;5.30;;
57730;SDS011;43570;47.476;19.040;2023-05-10T08:20:57;7.20;;;4.93;;
57730;SDS011;43570;47.476;19.040;2023-05-10T08:23:22;7.12;;;4.40;;
57730;SDS011;43570;47.476;19.040;2023-05-10T08:25:48;7.85;;;4.65;;
57730;SDS011;43570;47.476;19.040;2023-05-10T08:28:13;9.40;;;6.65;;
57730;SDS011;43570;47.476;19.040;2023-05-10T08:30:39;7.37;;;4.15;;
57730;SDS011;43570;47.476;19.040;2023-05-10T08:33:04;5.93;;;3.97;;
57730;SDS011;43570;47.476;19.040;2023-05-10T08:35:30;6.20;;;4.30;;
57730;SDS011;43570;47.476;19.040;2023-05-10T08:37:55;5.70;;;4.05;;
57730;SDS011;43570;47.476;19.040;2023-05-10T08:40:21;6.65;;;4.12;;
57730;SDS011;43570;47.476;19.040;2023-05-10T08:42:51;7.28;;;4.47;;
57730;SDS011;43570;47.476;19.040;2023-05-10T08:45:21;5.95;;;4.37;;
57730;SDS011;43570;47.476;19.040;2023-05-10T08:47:48;7.30;;;4.45;;
57730;SDS011;43570;47.476;19.040;2023-05-10T08:50:15;7.90;;;4.45;;
57730;SDS011;43570;47.476;19.040;2023-05-10T08:52:42;6.72;;;4.40;;
57730;SDS011;43570;47.476;19.040;2023-05-10T08:55:08;7.87;;;4.30;;
57730;SDS011;43570;47.476;19.040;2023-05-10T08:57:33;7.03;;;4.40;;
57730;SDS011;43570;47.476;19.040;2023-05-10T08:59:59;6.45;;;4.50;;
57730;SDS011;43570;47.476;19.040;2023-05-10T09:02:25;8.32;;;4.32;;
57730;SDS011;43570;47.476;19.040;2023-05-10T09:04:51;5.87;;;4.43;;
57730;SDS011;43570;47.476;19.040;2023-05-10T09:07:17;7.37;;;3.90;;
57730;SDS011;43570;47.476;19.040;2023-05-10T09:09:42;8.65;;;6.45;;
57730;SDS011;43570;47.476;19.040;2023-05-10T09:12:08;6.18;;;4.12;;
57730;SDS011;43570;47.476;19.040;2023-05-10T09:14:36;7.03;;;4.18;;
57730;SDS011;43570;47.476;19.040;2023-05-10T09:17:02;7.22;;;4.07;;
57730;SDS011;43570;47.476;19.040;2023-05-10T09:19:27;5.05;;;3.70;;
57730;SDS011;43570;47.476;19.040;2023-05-10T09:21:53;5.55;;;4.32;;
57730;SDS011;43570;47.476;19.040;2023-05-10T09:24:18;4.78;;;3.70;;
57730;SDS011;43570;47.476;19.040;2023-05-10T09:26:47;4.53;;;3.50;;
57730;SDS011;43570;47.476;19.040;2023-05-10T09:29:15;6.57;;;3.90;;
57730;SDS011;43570;47.476;19.040;2023-05-10T09:34:20;6.87;;;4.20;;
57730;SDS011;43570;47.476;19.040;2023-05-10T09:36:54;4.87;;;3.83;;
57730;SDS011;43570;47.476;19.040;2023-05-10T09:39:21;6.32;;;4.68;;
57730;SDS011;43570;47.476;19.040;2023-05-10T09:41:55;10.50;;;4.75;;
57730;SDS011;43570;47.476;19.040;2023-05-10T09:44:20;5.62;;;4.10;;
57730;SDS011;43570;47.476;19.040;2023-05-10T09:46:49;4.93;;;4.07;;
57730;SDS011;43570;47.476;19.040;2023-05-10T09:49:15;7.72;;;5.07;;
57730;SDS011;43570;47.476;19.040;2023-05-10T09:51:41;6.70;;;4.10;;
57730;SDS011;43570;47.476;19.040;2023-05-10T09:54:14;7.25;;;4.20;;
57730;SDS011;43570;47.476;19.040;2023-05-10T09:56:41;9.95;;;4.10;;
57730;SDS011;43570;47.476;19.040;2023-05-10T09:59:09;6.37;;;3.95;;
57730;SDS011;43570;47.476;19.040;2023-05-10T10:01:35;5.43;;;3.75;;
57730;SDS011;43570;47.476;19.040;2023-05-10T10:04:05;4.85;;;3.72;;
57730;SDS011;43570;47.476;19.040;2023-05-10T10:06:37;6.18;;;4.25;;
57730;SDS011;43570;47.476;19.040;2023-05-10T10:09:07;7.60;;;4.32;;
57730;SDS011;43570;47.476;19.040;2023-05-10T10:11:36;4.93;;;3.90;;
57730;SDS011;43570;47.476;19.040;2023-05-10T10:16:31;5.40;;;3.80;;
57730;SDS011;43570;47.476;19.040;2023-05-10T10:18:57;4.70;;;3.40;;
57730;SDS011;43570;47.476;19.040;2023-05-10T10:21:23;5.20;;;3.53;;
57730;SDS011;43570;47.476;19.040;2023-05-10T10:23:49;6.68;;;3.55;;
57730;SDS011;43570;47.476;19.040;2023-05-10T10:26:15;6.45;;;3.72;;
57730;SDS011;43570;47.476;19.040;2023-05-10T10:31:23;5.72;;;3.42;;
57730;SDS011;43570;47.476;19.040;2023-05-10T10:34:16;4.25;;;3.25;;
57730;SDS011;43570;47.476;19.040;2023-05-10T10:36:50;5.45;;;4.05;;
57730;SDS011;43570;47.476;19.040;2023-05-10T10:39:16;5.82;;;3.33;;
57730;SDS011;43570;47.476;19.040;2023-05-10T10:41:51;3.62;;;2.92;;
57730;SDS011;43570;47.476;19.040;2023-05-10T10:54:59;6.50;;;3.83;;
57730;SDS011;43570;47.476;19.040;2023-05-10T10:57:31;4.57;;;2.92;;
57730;SDS011;43570;47.476;19.040;2023-05-10T11:08:09;3.97;;;2.65;;
57730;SDS011;43570;47.476;19.040;2023-05-10T11:15:54;3.87;;;2.45;;
57730;SDS011;43570;47.476;19.040;2023-05-10T11:18:20;6.90;;;2.67;;
57730;SDS011;43570;47.476;19.040;2023-05-10T11:20:52;4.72;;;2.58;;
57730;SDS011;43570;47.476;19.040;2023-05-10T11:23:29;3.58;;;2.70;;
57730;SDS011;43570;47.476;19.040;2023-05-10T11:26:13;5.00;;;3.20;;
57730;SDS011;43570;47.476;19.040;2023-05-10T11:28:45;4.05;;;2.80;;
57730;SDS011;43570;47.476;19.040;2023-05-10T11:31:13;5.35;;;2.45;;
57730;SDS011;43570;47.476;19.040;2023-05-10T11:33:58;5.22;;;2.22;;
57730;SDS011;43570;47.476;19.040;2023-05-10T11:36:27;3.65;;;2.70;;
57730;SDS011;43570;47.476;19.040;2023-05-10T11:38:53;4.93;;;3.00;;
57730;SDS011;43570;47.476;19.040;2023-05-10T11:41:21;6.93;;;3.65;;
57730;SDS011;43570;47.476;19.040;2023-05-10T11:43:48;5.07;;;2.60;;
57730;SDS011;43570;47.476;19.040;2023-05-10T11:46:23;4.30;;;2.10;;
57730;SDS011;43570;47.476;19.040;2023-05-10T11:48:51;4.22;;;2.25;;
57730;SDS011;43570;47.476;19.040;2023-05-10T11:51:20;3.60;;;2.40;;
57730;SDS011;43570;47.476;19.040;2023-05-10T11:53:46;4.45;;;2.55;;
57730;SDS011;43570;47.476;19.040;2023-05-10T11:56:12;3.15;;;2.00;;
57730;SDS011;43570;47.476;19.040;2023-05-10T11:58:38;4.95;;;2.47;;
57730;SDS011;43570;47.476;19.040;2023-05-10T12:01:06;3.92;;;2.45;;
57730;SDS011;43570;47.476;19.040;2023-05-10T12:03:32;4.07;;;2.40;;
57730;SDS011;43570;47.476;19.040;2023-05-10T12:05:58;4.80;;;2.75;;
57730;SDS011;43570;47.476;19.040;2023-05-10T12:08:25;5.45;;;2.78;;
57730;SDS011;43570;47.476;19.040;2023-05-10T12:10:52;5.72;;;2.60;;
57730;SDS011;43570;47.476;19.040;2023-05-10T12:13:18;3.67;;;2.47;;
57730;SDS011;43570;47.476;19.040;2023-05-10T12:15:45;3.17;;;2.25;;
57730;SDS011;43570;47.476;19.040;2023-05-10T12:18:12;3.40;;;2.08;;
57730;SDS011;43570;47.476;19.040;2023-05-10T12:20:38;4.45;;;2.72;;
57730;SDS011;43570;47.476;19.040;2023-05-10T12:23:04;2.70;;;2.20;;
57730;SDS011;43570;47.476;19.040;2023-05-10T12:25:33;3.87;;;2.53;;
57730;SDS011;43570;47.476;19.040;2023-05-10T12:28:00;3.97;;;2.58;;
57730;SDS011;43570;47.476;19.040;2023-05-10T12:30:28;4.05;;;2.42;;
57730;SDS011;43570;47.476;19.040;2023-05-10T12:33:02;4.05;;;2.47;;
57730;SDS011;43570;47.476;19.040;2023-05-10T12:35:32;4.80;;;2.83;;
57730;SDS011;43570;47.476;19.040;2023-05-10T12:37:57;4.32;;;2.72;;
57730;SDS011;43570;47.476;19.040;2023-05-10T12:40:23;5.18;;;2.55;;
57730;SDS011;43570;47.476;19.040;2023-05-10T12:42:48;3.00;;;2.20;;
57730;SDS011;43570;47.476;19.040;2023-05-10T12:45:14;7.32;;;3.08;;
57730;SDS011;43570;47.476;19.040;2023-05-10T12:47:40;5.45;;;3.28;;
57730;SDS011;43570;47.476;19.040;2023-05-10T12:50:05;4.07;;;2.62;;
57730;SDS011;43570;47.476;19.040;2023-05-10T12:52:31;3.22;;;2.17;;
57730;SDS011;43570;47.476;19.040;2023-05-10T12:54:57;7.30;;;2.10;;
57730;SDS011;43570;47.476;19.040;2023-05-10T12:57:23;3.60;;;2.10;;
57730;SDS011;43570;47.476;19.040;2023-05-10T12:59:49;3.97;;;2.08;;
57730;SDS011;43570;47.476;19.040;2023-05-10T13:02:15;3.60;;;1.90;;
57730;SDS011;43570;47.476;19.040;2023-05-10T13:04:42;2.97;;;1.85;;
57730;SDS011;43570;47.476;19.040;2023-05-10T13:07:08;3.67;;;1.92;;
57730;SDS011;43570;47.476;19.040;2023-05-10T13:09:34;4.70;;;2.30;;
57730;SDS011;43570;47.476;19.040;2023-05-10T13:11:59;3.90;;;2.08;;
57730;SDS011;43570;47.476;19.040;2023-05-10T13:14:25;2.97;;;2.17;;
57730;SDS011;43570;47.476;19.040;2023-05-10T13:16:50;3.10;;;1.98;;
57730;SDS011;43570;47.476;19.040;2023-05-10T13:19:16;5.93;;;2.20;;
57730;SDS011;43570;47.476;19.040;2023-05-10T13:21:42;3.25;;;2.10;;
57730;SDS011;43570;47.476;19.040;2023-05-10T13:24:09;4.82;;;1.92;;
57730;SDS011;43570;47.476;19.040;2023-05-10T13:26:35;3.25;;;1.95;;
57730;SDS011;43570;47.476;19.040;2023-05-10T13:29:01;6.20;;;2.17;;
57730;SDS011;43570;47.476;19.040;2023-05-10T13:31:27;4.32;;;2.12;;
57730;SDS011;43570;47.476;19.040;2023-05-10T13:33:52;2.12;;;1.60;;
57730;SDS011;43570;47.476;19.040;2023-05-10T13:36:18;6.05;;;2.40;;
57730;SDS011;43570;47.476;19.040;2023-05-10T13:38:43;4.12;;;2.45;;
57730;SDS011;43570;47.476;19.040;2023-05-10T13:41:08;2.87;;;1.90;;
57730;SDS011;43570;47.476;19.040;2023-05-10T13:43:34;5.82;;;2.05;;
57730;SDS011;43570;47.476;19.040;2023-05-10T13:46:00;6.30;;;2.12;;
57730;SDS011;43570;47.476;19.040;2023-05-10T13:48:25;2.78;;;2.12;;
57730;SDS011;43570;47.476;19.040;2023-05-10T13:50:51;2.12;;;1.70;;
57730;SDS011;43570;47.476;19.040;2023-05-10T13:53:16;3.70;;;1.87;;
57730;SDS011;43570;47.476;19.040;2023-05-10T13:55:42;3.70;;;1.85;;
57730;SDS011;43570;47.476;19.040;2023-05-10T13:58:07;3.87;;;1.70;;
57730;SDS011;43570;47.476;19.040;2023-05-10T14:00:33;8.75;;;2.12;;
57730;SDS011;43570;47.476;19.040;2023-05-10T14:02:58;5.35;;;2.03;;
57730;SDS011;43570;47.476;19.040;2023-05-10T14:05:24;6.85;;;2.90;;
57730;SDS011;43570;47.476;19.040;2023-05-10T14:07:50;3.95;;;1.85;;
57730;SDS011;43570;47.476;19.040;2023-05-10T14:10:15;4.55;;;1.90;;
57730;SDS011;43570;47.476;19.040;2023-05-10T14:12:41;2.65;;;1.90;;
57730;SDS011;43570;47.476;19.040;2023-05-10T14:15:06;4.40;;;1.87;;
57730;SDS011;43570;47.476;19.040;2023-05-10T14:17:32;2.78;;;1.65;;
57730;SDS011;43570;47.476;19.040;2023-05-10T14:19:58;4.82;;;1.70;;
57730;SDS011;43570;47.476;19.040;2023-05-10T14:22:23;4.10;;;1.83;;
57730;SDS011;43570;47.476;19.040;2023-05-10T14:24:48;4.15;;;1.87;;
57730;SDS011;43570;47.476;19.040;2023-05-10T14:27:15;4.20;;;2.00;;
57730;SDS011;43570;47.476;19.040;2023-05-10T14:29:40;3.85;;;2.20;;
57730;SDS011;43570;47.476;19.040;2023-05-10T14:32:06;6.32;;;2.22;;
57730;SDS011;43570;47.476;19.040;2023-05-10T14:34:32;6.47;;;2.10;;
57730;SDS011;43570;47.476;19.040;2023-05-10T14:36:58;4.03;;;1.90;;
57730;SDS011;43570;47.476;19.040;2023-05-10T14:39:23;10.02;;;2.58;;
57730;SDS011;43570;47.476;19.040;2023-05-10T14:41:49;4.43;;;1.98;;
57730;SDS011;43570;47.476;19.040;2023-05-10T14:44:16;3.58;;;1.65;;
57730;SDS011;43570;47.476;19.040;2023-05-10T14:46:41;4.60;;;1.87;;
57730;SDS011;43570;47.476;19.040;2023-05-10T14:49:07;4.35;;;1.73;;
57730;SDS011;43570;47.476;19.040;2023-05-10T14:51:33;3.33;;;2.08;;
57730;SDS011;43570;47.476;19.040;2023-05-10T14:53:58;3.03;;;1.70;;
57730;SDS011;43570;47.476;19.040;2023-05-10T14:56:24;6.10;;;2.15;;
57730;SDS011;43570;47.476;19.040;2023-05-10T14:58:51;4.37;;;1.73;;
57730;SDS011;43570;47.476;19.040;2023-05-10T15:01:16;3.50;;;1.92;;
57730;SDS011;43570;47.476;19.040;2023-05-10T15:03:42;4.93;;;1.60;;
57730;SDS011;43570;47.476;19.040;2023-05-10T15:06:07;6.43;;;2.00;;
57730;SDS011;43570;47.476;19.040;2023-05-10T15:08:33;3.47;;;1.95;;
57730;SDS011;43570;47.476;19.040;2023-05-10T15:10:59;4.20;;;1.92;;
57730;SDS011;43570;47.476;19.040;2023-05-10T15:13:24;6.18;;;2.20;;
57730;SDS011;43570;47.476;19.040;2023-05-10T15:15:50;4.60;;;1.77;;
57730;SDS011;43570;47.476;19.040;2023-05-10T15:18:15;4.35;;;1.80;;
57730;SDS011;43570;47.476;19.040;2023-05-10T15:20:41;3.78;;;1.90;;
57730;SDS011;43570;47.476;19.040;2023-05-10T15:23:06;3.72;;;1.98;;